createdAt,value
2019-05-28T00:00:39.252Z,17.57
2019-05-28T00:01:39.289Z,17.65
2019-05-28T00:02:39.224Z,17.59
2019-05-28T00:03:39.213Z,17.56
2019-05-28T00:04:39.193Z,17.60
2019-05-28T00:05:39.182Z,17.57
2019-05-28T00:06:39.202Z,17.57
2019-05-28T00:07:39.165Z,17.64
2019-05-28T00:08:39.150Z,17.59
2019-05-28T00:09:39.139Z,17.64
2019-05-28T00:10:39.125Z,17.59
2019-05-28T00:11:39.154Z,17.63
2019-05-28T00:12:39.114Z,17.59
2019-05-28T00:13:39.100Z,17.67
2019-05-28T00:14:39.086Z,17.65
2019-05-28T00:15:39.077Z,17.65
2019-05-28T00:16:39.124Z,17.70
2019-05-28T00:17:39.051Z,17.74
2019-05-28T00:18:39.036Z,17.71
2019-05-28T00:19:39.029Z,17.76
2019-05-28T00:20:39.024Z,17.76
2019-05-28T00:21:39.012Z,17.79
2019-05-28T00:22:39.115Z,17.76
2019-05-28T00:23:38.988Z,17.76
2019-05-28T00:24:38.977Z,17.82
2019-05-28T00:25:38.971Z,17.67
2019-05-28T00:26:38.957Z,17.74
2019-05-28T00:27:38.984Z,17.76
2019-05-28T00:28:38.930Z,17.72
2019-05-28T00:29:38.917Z,17.80
2019-05-28T00:30:38.905Z,17.70
2019-05-28T00:31:38.898Z,17.74
2019-05-28T00:32:38.916Z,17.67
2019-05-28T00:33:38.888Z,17.65
2019-05-28T00:34:38.874Z,17.65
2019-05-28T00:35:38.855Z,17.63
2019-05-28T00:36:38.840Z,17.65
2019-05-28T00:37:38.862Z,17.64
2019-05-28T00:38:38.824Z,17.51
2019-05-28T00:39:38.812Z,17.57
2019-05-28T00:40:38.796Z,17.56
2019-05-28T00:41:38.784Z,17.51
2019-05-28T00:42:38.796Z,17.49
2019-05-28T00:43:38.763Z,17.51
2019-05-28T00:44:38.757Z,17.52
2019-05-28T00:45:38.750Z,17.51
2019-05-28T00:46:38.735Z,17.56
2019-05-28T00:47:38.748Z,17.52
2019-05-28T00:48:38.709Z,17.54
2019-05-28T00:49:38.696Z,17.54
2019-05-28T00:50:38.686Z,17.52
2019-05-28T00:51:38.694Z,17.51
2019-05-28T00:52:38.691Z,17.44
2019-05-28T00:53:38.662Z,17.51
2019-05-28T00:54:38.677Z,17.44
2019-05-28T00:55:38.629Z,17.54
2019-05-28T00:56:38.626Z,17.54
2019-05-28T00:57:38.647Z,17.52
2019-05-28T00:58:38.622Z,17.51
2019-05-28T00:59:38.593Z,17.44
2019-05-28T01:00:38.575Z,17.49
2019-05-28T01:01:38.632Z,17.38
2019-05-28T01:02:38.575Z,17.49
2019-05-28T01:03:38.544Z,17.41
2019-05-28T01:04:38.536Z,17.41
2019-05-28T01:05:38.527Z,17.38
2019-05-28T01:06:38.515Z,17.34
2019-05-28T01:07:38.539Z,17.26
2019-05-28T01:08:38.487Z,17.30
2019-05-28T01:09:38.477Z,17.27
2019-05-28T01:10:38.472Z,17.19
2019-05-28T01:11:38.459Z,17.15
2019-05-28T01:12:38.482Z,17.29
2019-05-28T01:13:38.438Z,17.16
2019-05-28T01:14:38.444Z,17.19
2019-05-28T01:15:38.413Z,17.14
2019-05-28T01:16:38.407Z,17.12
2019-05-28T01:17:38.408Z,17.09
2019-05-28T01:18:38.385Z,17.14
2019-05-28T01:19:38.410Z,17.06
2019-05-28T01:20:38.361Z,17.09
2019-05-28T01:21:38.348Z,17.01
2019-05-28T01:22:38.338Z,17.05
2019-05-28T01:23:38.326Z,17.04
2019-05-28T01:24:38.362Z,17.14
2019-05-28T01:25:38.311Z,16.99
2019-05-28T01:26:38.300Z,17.04
2019-05-28T01:27:38.291Z,16.93
2019-05-28T01:28:38.276Z,16.97
2019-05-28T01:29:38.298Z,17.02
2019-05-28T01:30:53.967Z,17.01
2019-05-28T01:31:39.244Z,17.08
2019-05-28T01:32:38.233Z,17.01
2019-05-28T01:33:38.217Z,16.87
2019-05-28T01:34:38.242Z,16.87
2019-05-28T01:35:38.196Z,16.97
2019-05-28T01:36:38.196Z,16.91
2019-05-28T01:37:38.186Z,16.94
2019-05-28T01:38:38.171Z,17.01
2019-05-28T01:39:38.187Z,16.94
2019-05-28T01:40:38.143Z,16.91
2019-05-28T01:41:38.132Z,16.87
2019-05-28T01:42:38.151Z,16.79
2019-05-28T01:43:38.115Z,16.78
2019-05-28T01:44:38.120Z,16.81
2019-05-28T01:45:38.089Z,16.79
2019-05-28T01:46:38.078Z,16.86
2019-05-28T01:47:38.102Z,16.83
2019-05-28T01:48:38.084Z,16.83
2019-05-28T01:49:38.073Z,16.83
2019-05-28T01:50:38.044Z,16.79
2019-05-28T01:51:38.029Z,16.79
2019-05-28T01:52:38.045Z,16.74
2019-05-28T01:53:38.001Z,16.78
2019-05-28T01:54:37.991Z,16.71
2019-05-28T01:55:37.983Z,16.71
2019-05-28T01:56:37.976Z,16.75
2019-05-28T01:57:37.964Z,16.65
2019-05-28T01:58:37.982Z,16.68
2019-05-28T01:59:37.938Z,16.68
2019-05-28T02:00:37.931Z,16.64
2019-05-28T02:01:37.925Z,16.72
2019-05-28T02:02:37.909Z,16.60
2019-05-28T02:03:37.934Z,16.64
2019-05-28T02:04:37.883Z,16.57
2019-05-28T02:05:37.873Z,16.58
2019-05-28T02:06:37.863Z,16.57
2019-05-28T02:07:37.851Z,16.60
2019-05-28T02:08:37.877Z,16.57
2019-05-28T02:09:37.835Z,16.56
2019-05-28T02:10:37.824Z,16.60
2019-05-28T02:11:37.822Z,16.56
2019-05-28T02:12:37.841Z,16.60
2019-05-28T02:13:37.819Z,16.66
2019-05-28T02:14:37.784Z,16.56
2019-05-28T02:15:37.768Z,16.56
2019-05-28T02:16:37.755Z,16.56
2019-05-28T02:17:37.744Z,16.56
2019-05-28T02:18:37.754Z,16.54
2019-05-28T02:19:37.735Z,16.66
2019-05-28T02:20:37.714Z,16.61
2019-05-28T02:21:37.707Z,16.60
2019-05-28T02:22:37.717Z,16.54
2019-05-28T02:23:37.724Z,16.65
2019-05-28T02:24:37.698Z,16.60
2019-05-28T02:25:37.655Z,16.58
2019-05-28T02:26:37.643Z,16.66
2019-05-28T02:27:37.632Z,16.61
2019-05-28T02:28:37.628Z,16.58
2019-05-28T02:29:37.652Z,16.60
2019-05-28T02:30:37.607Z,16.61
2019-05-28T02:31:37.593Z,16.58
2019-05-28T02:32:37.587Z,16.57
2019-05-28T02:33:37.600Z,16.61
2019-05-28T02:34:37.586Z,16.61
2019-05-28T02:35:37.555Z,16.66
2019-05-28T02:36:37.536Z,16.58
2019-05-28T02:37:37.523Z,16.58
2019-05-28T02:38:37.533Z,16.58
2019-05-28T02:39:37.502Z,16.56
2019-05-28T02:40:37.497Z,16.60
2019-05-28T02:41:37.488Z,16.57
2019-05-28T02:42:37.475Z,16.50
2019-05-28T02:43:37.487Z,16.50
2019-05-28T02:44:37.447Z,16.54
2019-05-28T02:45:37.440Z,16.53
2019-05-28T02:46:37.431Z,16.50
2019-05-28T02:47:37.433Z,16.58
2019-05-28T02:48:37.449Z,16.50
2019-05-28T02:49:37.402Z,16.42
2019-05-28T02:50:37.390Z,16.42
2019-05-28T02:51:37.388Z,16.47
2019-05-28T02:52:37.373Z,16.50
2019-05-28T02:53:37.377Z,16.43
2019-05-28T02:54:37.354Z,16.41
2019-05-28T02:55:37.333Z,16.41
2019-05-28T02:56:37.324Z,16.39
2019-05-28T02:57:37.364Z,16.49
2019-05-28T02:58:37.326Z,16.38
2019-05-28T02:59:37.286Z,16.36
2019-05-28T03:00:37.278Z,16.36
2019-05-28T03:01:44.439Z,16.38
2019-05-28T03:02:38.252Z,16.35
2019-05-28T03:03:37.284Z,16.41
2019-05-28T03:04:37.237Z,16.38
2019-05-28T03:05:37.227Z,16.36
2019-05-28T03:06:37.212Z,16.43
2019-05-28T03:07:37.204Z,16.46
2019-05-28T03:08:37.223Z,16.38
2019-05-28T03:09:37.176Z,16.42
2019-05-28T03:11:01.866Z,16.39
2019-05-28T03:11:38.160Z,16.41
2019-05-28T03:12:37.153Z,16.38
2019-05-28T03:13:37.171Z,16.35
2019-05-28T03:14:37.150Z,16.42
2019-05-28T03:15:37.122Z,16.42
2019-05-28T03:16:37.111Z,16.41
2019-05-28T03:17:37.088Z,16.47
2019-05-28T03:18:37.114Z,16.49
2019-05-28T03:19:37.077Z,16.39
2019-05-28T03:20:37.060Z,16.42
2019-05-28T03:21:37.044Z,16.42
2019-05-28T03:22:37.033Z,16.49
2019-05-28T03:23:37.067Z,16.47
2019-05-28T03:24:37.038Z,16.43
2019-05-28T03:25:37.009Z,16.42
2019-05-28T03:26:36.994Z,16.36
2019-05-28T03:27:36.990Z,16.39
2019-05-28T03:28:36.968Z,16.49
2019-05-28T03:29:37.000Z,16.41
2019-05-28T03:30:36.953Z,16.46
2019-05-28T03:31:36.952Z,16.43
2019-05-28T03:32:36.929Z,16.42
2019-05-28T03:33:36.917Z,16.49
2019-05-28T03:34:36.938Z,16.39
2019-05-28T03:35:36.895Z,16.42
2019-05-28T03:36:36.882Z,16.39
2019-05-28T03:37:36.873Z,16.50
2019-05-28T03:38:36.865Z,16.42
2019-05-28T03:39:36.882Z,16.46
2019-05-28T03:40:36.843Z,16.42
2019-05-28T03:41:36.835Z,16.42
2019-05-28T03:42:36.818Z,16.42
2019-05-28T03:43:36.812Z,16.46
2019-05-28T03:44:36.832Z,16.50
2019-05-28T03:45:36.846Z,16.47
2019-05-28T03:46:36.794Z,16.47
2019-05-28T03:47:36.761Z,16.46
2019-05-28T03:48:36.749Z,16.51
2019-05-28T03:49:36.782Z,16.56
2019-05-28T03:50:36.740Z,16.51
2019-05-28T03:51:36.736Z,16.57
2019-05-28T03:52:36.716Z,16.54
2019-05-28T03:53:36.709Z,16.53
2019-05-28T03:54:36.711Z,16.54
2019-05-28T03:55:36.676Z,16.50
2019-05-28T03:56:36.664Z,16.53
2019-05-28T03:57:36.658Z,16.50
2019-05-28T03:58:36.649Z,16.53
2019-05-28T03:59:36.651Z,16.57
2019-05-28T04:00:36.652Z,16.57
2019-05-28T04:01:36.615Z,16.57
2019-05-28T04:02:36.602Z,16.58
2019-05-28T04:03:36.598Z,16.57
2019-05-28T04:04:36.592Z,16.58
2019-05-28T04:05:36.601Z,16.66
2019-05-28T04:06:36.554Z,16.60
2019-05-28T04:07:36.543Z,16.72
2019-05-28T04:08:36.532Z,16.60
2019-05-28T04:09:36.569Z,16.68
2019-05-28T04:10:36.528Z,16.65
2019-05-28T04:11:44.865Z,16.64
2019-05-28T04:12:37.495Z,16.74
2019-05-28T04:13:36.479Z,16.72
2019-05-28T04:14:36.510Z,16.71
2019-05-28T04:15:36.462Z,16.71
2019-05-28T04:16:36.453Z,16.75
2019-05-28T04:17:36.439Z,16.71
2019-05-28T04:18:36.427Z,16.72
2019-05-28T04:19:36.435Z,16.71
2019-05-28T04:20:36.433Z,16.75
2019-05-28T04:21:36.411Z,16.72
2019-05-28T04:22:36.386Z,16.69
2019-05-28T04:23:36.425Z,16.76
2019-05-28T04:24:36.401Z,16.71
2019-05-28T04:25:36.349Z,16.74
2019-05-28T04:26:36.356Z,16.69
2019-05-28T04:27:36.332Z,16.74
2019-05-28T04:28:36.318Z,16.78
2019-05-28T04:29:36.310Z,16.84
2019-05-28T04:30:36.353Z,16.84
2019-05-28T04:31:36.285Z,16.74
2019-05-28T04:32:40.336Z,16.87
2019-05-28T04:33:36.269Z,16.79
2019-05-28T04:34:36.270Z,16.76
2019-05-28T04:35:36.294Z,16.78
2019-05-28T04:36:36.239Z,16.78
2019-05-28T04:37:36.249Z,16.91
2019-05-28T04:38:36.210Z,16.97
2019-05-28T04:39:36.200Z,16.93
2019-05-28T04:40:36.239Z,16.91
2019-05-28T04:41:36.181Z,16.96
2019-05-28T04:42:36.188Z,16.97
2019-05-28T04:43:36.166Z,16.89
2019-05-28T04:44:36.150Z,16.97
2019-05-28T04:45:36.184Z,16.96
2019-05-28T04:46:36.127Z,17.09
2019-05-28T04:47:36.117Z,17.06
2019-05-28T04:48:36.108Z,16.99
2019-05-28T04:49:36.095Z,16.97
2019-05-28T04:50:36.177Z,17.02
2019-05-28T04:51:36.089Z,17.02
2019-05-28T04:52:36.056Z,17.02
2019-05-28T04:53:36.080Z,17.04
2019-05-28T04:54:36.046Z,17.05
2019-05-28T04:55:36.032Z,17.09
2019-05-28T04:56:36.053Z,17.05
2019-05-28T04:57:36.004Z,17.14
2019-05-28T04:58:36.000Z,17.09
2019-05-28T04:59:35.986Z,17.12
2019-05-28T05:00:35.969Z,17.11
2019-05-28T05:01:36.003Z,17.16
2019-05-28T05:02:35.954Z,17.16
2019-05-28T05:03:35.938Z,17.12
2019-05-28T05:04:35.926Z,17.24
2019-05-28T05:05:35.920Z,17.30
2019-05-28T05:06:35.944Z,17.24
2019-05-28T05:07:35.903Z,17.34
2019-05-28T05:08:35.933Z,17.42
2019-05-28T05:09:35.875Z,17.42
2019-05-28T05:10:35.862Z,17.46
2019-05-28T05:11:35.887Z,17.52
2019-05-28T05:12:35.844Z,17.56
2019-05-28T05:13:35.835Z,17.56
2019-05-28T05:14:35.877Z,17.49
2019-05-28T05:15:35.810Z,17.54
2019-05-28T05:16:35.802Z,17.64
2019-05-28T05:17:35.812Z,17.72
2019-05-28T05:18:35.776Z,17.72
2019-05-28T05:19:35.771Z,17.79
2019-05-28T05:20:35.759Z,17.82
2019-05-28T05:21:35.929Z,17.82
2019-05-28T05:22:35.747Z,17.85
2019-05-28T05:23:35.722Z,18.00
2019-05-28T05:24:35.710Z,17.94
2019-05-28T05:25:35.721Z,17.98
2019-05-28T05:26:35.701Z,18.08
2019-05-28T05:27:35.730Z,18.13
2019-05-28T05:28:35.676Z,18.05
2019-05-28T05:29:35.652Z,18.13
2019-05-28T05:30:35.659Z,18.15
2019-05-28T05:31:35.635Z,18.18
2019-05-28T05:32:35.648Z,18.29
2019-05-28T05:33:35.616Z,18.28
2019-05-28T05:34:35.601Z,18.28
2019-05-28T05:35:35.586Z,18.31
2019-05-28T05:36:35.576Z,18.37
2019-05-28T05:37:35.590Z,18.33
2019-05-28T05:38:35.560Z,18.33
2019-05-28T05:39:35.550Z,18.38
2019-05-28T05:40:35.551Z,18.38
2019-05-28T05:41:35.519Z,18.38
2019-05-28T05:42:35.533Z,18.37
2019-05-28T05:43:35.501Z,18.33
2019-05-28T05:44:35.489Z,18.34
2019-05-28T05:45:35.482Z,18.38
2019-05-28T05:46:35.474Z,18.37
2019-05-28T05:47:35.496Z,18.38
2019-05-28T05:48:35.449Z,18.37
2019-05-28T05:49:35.444Z,18.40
2019-05-28T05:50:35.425Z,18.50
2019-05-28T05:51:35.415Z,18.41
2019-05-28T05:52:35.426Z,18.35
2019-05-28T05:53:35.482Z,18.44
2019-05-28T05:54:35.383Z,18.43
2019-05-28T05:55:35.369Z,18.43
2019-05-28T05:56:35.355Z,18.41
2019-05-28T05:57:35.407Z,18.40
2019-05-28T05:58:35.352Z,18.40
2019-05-28T05:59:35.608Z,18.40
2019-05-28T06:00:35.353Z,18.37
2019-05-28T06:01:35.371Z,18.37
2019-05-28T06:02:35.342Z,18.40
2019-05-28T06:03:40.178Z,18.44
2019-05-28T06:04:36.267Z,18.50
2019-05-28T06:05:35.278Z,18.52
2019-05-28T06:06:35.257Z,18.52
2019-05-28T06:07:35.298Z,18.55
2019-05-28T06:08:37.155Z,18.52
2019-05-28T06:09:35.229Z,18.58
2019-05-28T06:10:35.245Z,18.65
2019-05-28T06:11:35.203Z,18.62
2019-05-28T06:12:35.223Z,18.63
2019-05-28T06:13:35.174Z,18.62
2019-05-28T06:14:37.892Z,18.73
2019-05-28T06:15:35.149Z,18.84
2019-05-28T06:16:35.145Z,18.84
2019-05-28T06:17:35.140Z,18.86
2019-05-28T06:18:35.141Z,18.90
2019-05-28T06:19:35.111Z,18.99
2019-05-28T06:20:35.103Z,19.11
2019-05-28T06:21:35.083Z,19.26
2019-05-28T06:22:35.095Z,19.34
2019-05-28T06:23:35.104Z,19.29
2019-05-28T06:24:35.059Z,19.49
2019-05-28T06:25:35.046Z,19.54
2019-05-28T06:26:35.032Z,19.55
2019-05-28T06:27:35.024Z,19.55
2019-05-28T06:28:35.028Z,19.59
2019-05-28T06:29:35.005Z,19.59
2019-05-28T06:30:35.028Z,19.59
2019-05-28T06:31:34.991Z,19.62
2019-05-28T06:32:35.915Z,19.62
2019-05-28T06:33:34.977Z,19.58
2019-05-28T06:34:34.947Z,19.71
2019-05-28T06:35:34.933Z,19.73
2019-05-28T06:36:34.922Z,19.70
2019-05-28T06:37:34.936Z,19.74
2019-05-28T06:38:34.908Z,19.86
2019-05-28T06:39:34.898Z,19.76
2019-05-28T06:40:34.887Z,19.82
2019-05-28T06:41:34.875Z,19.79
2019-05-28T06:42:39.052Z,19.76
2019-05-28T06:43:35.903Z,19.73
2019-05-28T06:44:34.843Z,19.82
2019-05-28T06:45:34.823Z,19.79
2019-05-28T06:46:34.815Z,19.76
2019-05-28T06:47:34.802Z,19.82
2019-05-28T06:48:34.821Z,19.85
2019-05-28T06:49:34.787Z,19.94
2019-05-28T06:50:34.802Z,19.94
2019-05-28T06:51:34.800Z,20.02
2019-05-28T06:52:34.755Z,20.09
2019-05-28T06:53:34.778Z,20.16
2019-05-28T06:54:34.732Z,20.13
2019-05-28T06:55:34.730Z,20.21
2019-05-28T06:56:34.714Z,20.26
2019-05-28T06:57:34.695Z,20.41
2019-05-28T06:58:39.491Z,20.40
2019-05-28T06:59:35.674Z,20.39
2019-05-28T07:00:34.667Z,20.43
2019-05-28T07:01:34.656Z,20.41
2019-05-28T07:02:34.646Z,20.39
2019-05-28T07:03:34.700Z,20.39
2019-05-28T07:04:34.632Z,20.40
2019-05-28T07:05:34.644Z,20.40
2019-05-28T07:06:34.602Z,20.40
2019-05-28T07:07:34.593Z,20.41
2019-05-28T07:08:34.580Z,20.43
2019-05-28T07:09:34.575Z,20.41
2019-05-28T07:10:34.582Z,20.36
2019-05-28T07:11:34.550Z,20.34
2019-05-28T07:12:34.544Z,20.39
2019-05-28T07:13:34.531Z,20.31
2019-05-28T07:14:34.522Z,20.28
2019-05-28T07:15:34.527Z,20.31
2019-05-28T07:16:34.496Z,20.22
2019-05-28T07:17:34.483Z,20.31
2019-05-28T07:18:34.471Z,20.29
2019-05-28T07:19:34.483Z,20.25
2019-05-28T07:20:34.483Z,20.22
2019-05-28T07:21:34.498Z,20.32
2019-05-28T07:22:34.435Z,20.34
2019-05-28T07:23:34.466Z,20.28
2019-05-28T07:24:34.455Z,20.32
2019-05-28T07:25:34.415Z,20.21
2019-05-28T07:26:34.386Z,20.31
2019-05-28T07:27:34.379Z,20.28
2019-05-28T07:28:34.370Z,20.29
2019-05-28T07:29:34.431Z,20.34
2019-05-28T07:30:34.344Z,20.28
2019-05-28T07:31:34.339Z,20.36
2019-05-28T07:32:34.328Z,20.40
2019-05-28T07:33:35.767Z,20.52
2019-05-28T07:34:34.336Z,20.55
2019-05-28T07:35:45.487Z,20.72
2019-05-28T07:36:35.280Z,20.92
2019-05-28T07:37:34.264Z,21.09
2019-05-28T07:38:34.252Z,21.30
2019-05-28T07:39:34.269Z,21.48
2019-05-28T07:40:34.233Z,21.64
2019-05-28T07:41:34.225Z,21.76
2019-05-28T07:42:34.215Z,22.02
2019-05-28T07:43:34.199Z,22.11
2019-05-28T07:44:34.210Z,22.33
2019-05-28T07:45:34.180Z,22.45
2019-05-28T07:46:34.197Z,22.53
2019-05-28T07:47:34.170Z,22.63
2019-05-28T07:48:34.166Z,22.65
2019-05-28T07:49:34.153Z,22.78
2019-05-28T07:50:34.143Z,22.83
2019-05-28T07:51:34.124Z,22.83
2019-05-28T07:52:34.116Z,22.93
2019-05-28T07:53:39.854Z,23.06
2019-05-28T07:54:35.083Z,23.15
2019-05-28T07:55:34.097Z,23.25
2019-05-28T07:56:34.068Z,23.56
2019-05-28T07:57:34.049Z,23.65
2019-05-28T07:58:34.038Z,23.96
2019-05-28T07:59:34.031Z,24.36
2019-05-28T08:00:34.087Z,24.55
2019-05-28T08:01:34.003Z,24.76
2019-05-28T08:02:33.992Z,25.07
2019-05-28T08:03:34.000Z,25.18
2019-05-28T08:04:46.885Z,25.41
2019-05-28T08:05:34.998Z,25.58
2019-05-28T08:06:33.959Z,25.69
2019-05-28T08:07:33.951Z,25.83
2019-05-28T08:08:33.965Z,25.98
2019-05-28T08:09:33.918Z,26.13
2019-05-28T08:10:33.909Z,26.22
2019-05-28T08:11:33.936Z,26.40
2019-05-28T08:12:33.894Z,26.43
2019-05-28T08:13:40.761Z,26.63
2019-05-28T08:14:34.866Z,26.65
2019-05-28T08:15:33.888Z,26.99
2019-05-28T08:16:33.846Z,27.18
2019-05-28T08:17:33.839Z,27.58
2019-05-28T08:18:33.834Z,27.86
2019-05-28T08:19:33.816Z,28.14
2019-05-28T08:20:33.804Z,28.30
2019-05-28T08:21:33.844Z,28.33
2019-05-28T08:22:42.254Z,28.23
2019-05-28T08:23:34.768Z,28.14
2019-05-28T08:24:33.760Z,27.95
2019-05-28T08:25:46.944Z,27.64
2019-05-28T08:26:34.778Z,27.27
2019-05-28T08:27:33.734Z,26.81
2019-05-28T08:28:33.720Z,26.38
2019-05-28T08:29:33.704Z,25.91
2019-05-28T08:30:33.695Z,25.75
2019-05-28T08:31:33.710Z,25.50
2019-05-28T08:32:33.678Z,25.25
2019-05-28T08:33:33.665Z,25.11
2019-05-28T08:34:33.702Z,24.85
2019-05-28T08:35:33.640Z,24.58
2019-05-28T08:36:33.677Z,24.47
2019-05-28T08:37:33.626Z,24.35
2019-05-28T08:38:33.619Z,24.29
2019-05-28T08:39:33.856Z,24.05
2019-05-28T08:40:33.635Z,23.98
2019-05-28T08:41:33.840Z,23.80
2019-05-28T08:42:33.639Z,23.73
2019-05-28T08:43:33.597Z,23.73
2019-05-28T08:44:33.567Z,23.61
2019-05-28T08:45:33.543Z,23.54
2019-05-28T08:46:33.530Z,23.48
2019-05-28T08:47:33.655Z,23.37
2019-05-28T08:48:33.536Z,23.27
2019-05-28T08:49:33.517Z,23.32
2019-05-28T08:50:35.187Z,23.23
2019-05-28T08:51:33.477Z,23.25
2019-05-28T08:52:33.495Z,23.20
2019-05-28T08:53:33.447Z,23.10
2019-05-28T08:54:33.437Z,22.99
2019-05-28T08:55:33.428Z,23.02
2019-05-28T08:56:33.421Z,23.05
2019-05-28T08:57:33.478Z,22.96
2019-05-28T08:58:33.400Z,23.10
2019-05-28T08:59:33.388Z,23.05
2019-05-28T09:00:33.379Z,23.31
2019-05-28T09:01:33.467Z,23.46
2019-05-28T09:02:33.352Z,23.56
2019-05-28T09:03:33.346Z,23.65
2019-05-28T09:04:33.428Z,23.80
2019-05-28T09:05:33.322Z,24.01
2019-05-28T09:06:33.316Z,24.01
2019-05-28T09:07:33.297Z,24.02
2019-05-28T09:08:39.220Z,23.95
2019-05-28T09:09:34.279Z,23.98
2019-05-28T09:10:33.271Z,23.92
2019-05-28T09:11:33.260Z,23.84
2019-05-28T09:12:33.268Z,23.78
2019-05-28T09:13:33.294Z,23.63
2019-05-28T09:14:54.333Z,23.54
2019-05-28T09:15:34.209Z,23.59
2019-05-28T09:16:33.237Z,23.55
2019-05-28T09:17:33.196Z,23.58
2019-05-28T09:18:33.182Z,23.54
2019-05-28T09:19:33.204Z,23.62
2019-05-28T09:20:33.161Z,23.68
2019-05-28T09:21:33.154Z,23.66
2019-05-28T09:22:33.163Z,23.68
2019-05-28T09:23:33.129Z,23.73
2019-05-28T09:24:33.152Z,23.76
2019-05-28T09:25:33.113Z,23.63
2019-05-28T09:26:33.092Z,23.73
2019-05-28T09:27:33.083Z,23.62
2019-05-28T09:28:33.071Z,23.65
2019-05-28T09:29:41.157Z,23.62
2019-05-28T09:30:33.089Z,23.61
2019-05-28T09:31:33.043Z,23.65
2019-05-28T09:32:33.033Z,23.63
2019-05-28T09:33:33.022Z,23.71
2019-05-28T09:34:33.049Z,23.61
2019-05-28T09:35:43.956Z,23.61
2019-05-28T09:36:33.981Z,23.54
2019-05-28T09:37:32.972Z,23.56
2019-05-28T09:38:32.961Z,23.44
2019-05-28T09:39:32.957Z,23.54
2019-05-28T09:40:48.970Z,23.59
2019-05-28T09:41:33.933Z,23.86
2019-05-28T09:42:32.926Z,24.14
2019-05-28T09:43:32.909Z,24.38
2019-05-28T09:44:32.906Z,24.58
2019-05-28T09:45:32.919Z,24.74
2019-05-28T09:46:32.876Z,24.89
2019-05-28T09:47:32.875Z,25.01
2019-05-28T09:48:32.863Z,25.01
2019-05-28T09:49:32.848Z,24.92
2019-05-28T09:50:32.871Z,24.92
2019-05-28T09:51:32.826Z,24.65
2019-05-28T09:52:32.815Z,24.40
2019-05-28T09:53:34.780Z,24.20
2019-05-28T09:54:32.801Z,24.23
2019-05-28T09:55:32.812Z,24.03
2019-05-28T09:56:32.937Z,23.88
2019-05-28T09:57:46.404Z,23.84
2019-05-28T09:58:33.755Z,23.78
2019-05-28T09:59:41.222Z,23.77
2019-05-28T10:00:33.768Z,23.69
2019-05-28T10:01:32.763Z,23.81
2019-05-28T10:02:32.708Z,23.91
2019-05-28T10:03:32.693Z,23.98
2019-05-28T10:04:47.300Z,24.32
2019-05-28T10:05:33.678Z,24.61
2019-05-28T10:06:37.126Z,24.89
2019-05-28T10:07:33.648Z,25.10
2019-05-28T10:08:32.641Z,25.36
2019-05-28T10:09:32.628Z,25.66
2019-05-28T10:10:32.626Z,25.98
2019-05-28T10:11:32.650Z,26.44
2019-05-28T10:12:32.672Z,26.97
2019-05-28T10:13:38.995Z,27.22
2019-05-28T10:14:33.593Z,27.58
2019-05-28T10:15:33.168Z,27.89
2019-05-28T10:16:32.585Z,28.17
2019-05-28T10:17:32.549Z,28.32
2019-05-28T10:18:32.536Z,28.67
2019-05-28T10:19:32.527Z,28.93
2019-05-28T10:20:32.518Z,29.19
2019-05-28T10:21:32.533Z,29.29
2019-05-28T10:22:32.492Z,29.38
2019-05-28T10:23:32.499Z,29.22
2019-05-28T10:24:32.481Z,29.14
2019-05-28T10:25:32.466Z,28.96
2019-05-28T10:26:32.489Z,28.78
2019-05-28T10:27:32.452Z,28.76
2019-05-28T10:28:32.466Z,28.39
2019-05-28T10:29:32.421Z,28.05
2019-05-28T10:30:32.409Z,27.77
2019-05-28T10:31:32.419Z,27.60
2019-05-28T10:32:32.441Z,27.59
2019-05-28T10:33:32.385Z,27.64
2019-05-28T10:34:32.384Z,27.51
2019-05-28T10:35:32.365Z,27.49
2019-05-28T10:36:36.479Z,27.40
2019-05-28T10:37:33.378Z,27.32
2019-05-28T10:38:32.334Z,27.22
2019-05-28T10:39:32.317Z,27.08
2019-05-28T10:40:32.306Z,27.11
2019-05-28T10:41:32.348Z,27.21
2019-05-28T10:42:32.325Z,27.11
2019-05-28T10:43:32.280Z,27.15
2019-05-28T10:44:32.272Z,27.03
2019-05-28T10:45:32.269Z,27.10
2019-05-28T10:46:32.251Z,27.10
2019-05-28T10:47:32.269Z,27.15
2019-05-28T10:48:32.222Z,27.29
2019-05-28T10:49:32.215Z,27.21
2019-05-28T10:50:32.203Z,27.22
2019-05-28T10:51:32.201Z,27.14
2019-05-28T10:52:32.187Z,27.15
2019-05-28T10:53:32.219Z,27.12
2019-05-28T10:54:32.159Z,26.99
2019-05-28T10:55:32.154Z,26.93
2019-05-28T10:56:32.147Z,26.70
2019-05-28T10:57:32.135Z,26.71
2019-05-28T10:58:32.159Z,26.58
2019-05-28T10:59:32.110Z,26.58
2019-05-28T11:00:32.096Z,26.48
2019-05-28T11:01:32.093Z,26.40
2019-05-28T11:02:32.080Z,26.43
2019-05-28T11:03:32.093Z,26.45
2019-05-28T11:04:32.057Z,26.38
2019-05-28T11:05:32.048Z,26.29
2019-05-28T11:06:32.075Z,26.34
2019-05-28T11:07:32.024Z,26.18
2019-05-28T11:08:32.043Z,26.06
2019-05-28T11:09:32.007Z,25.87
2019-05-28T11:10:31.995Z,25.77
2019-05-28T11:11:31.981Z,25.63
2019-05-28T11:12:31.971Z,25.54
2019-05-28T11:13:31.995Z,25.44
2019-05-28T11:14:31.952Z,25.36
2019-05-28T11:15:31.943Z,25.17
2019-05-28T11:16:32.007Z,25.07
2019-05-28T11:17:31.935Z,24.92
2019-05-28T11:18:31.916Z,24.86
2019-05-28T11:19:31.895Z,24.89
2019-05-28T11:20:31.883Z,24.81
2019-05-28T11:21:31.908Z,24.99
2019-05-28T11:22:31.861Z,24.93
2019-05-28T11:23:31.858Z,24.95
2019-05-28T11:24:31.850Z,24.96
2019-05-28T11:25:31.837Z,25.04
2019-05-28T11:26:31.864Z,25.11
2019-05-28T11:27:31.824Z,25.16
2019-05-28T11:28:31.836Z,25.08
2019-05-28T11:29:31.795Z,24.99
2019-05-28T11:30:31.784Z,25.04
2019-05-28T11:31:31.766Z,24.86
2019-05-28T11:32:31.752Z,24.86
2019-05-28T11:33:31.772Z,24.78
2019-05-28T11:34:31.735Z,24.65
2019-05-28T11:35:31.729Z,24.57
2019-05-28T11:36:31.722Z,24.54
2019-05-28T11:37:31.704Z,24.40
2019-05-28T11:38:31.694Z,24.24
2019-05-28T11:39:31.707Z,24.29
2019-05-28T11:40:31.672Z,24.02
2019-05-28T11:41:41.420Z,23.95
2019-05-28T11:42:32.650Z,23.84
2019-05-28T11:43:31.638Z,23.83
2019-05-28T11:44:31.643Z,23.80
2019-05-28T11:45:31.615Z,23.76
2019-05-28T11:46:31.611Z,23.76
2019-05-28T11:47:31.602Z,23.77
2019-05-28T11:48:31.589Z,23.83
2019-05-28T11:49:31.615Z,23.86
2019-05-28T11:50:31.577Z,23.84
2019-05-28T11:51:31.565Z,23.92
2019-05-28T11:52:31.537Z,23.93
2019-05-28T11:53:31.539Z,23.88
2019-05-28T11:54:31.593Z,24.01
2019-05-28T11:55:31.514Z,24.03
2019-05-28T11:56:31.520Z,24.13
2019-05-28T11:57:31.487Z,24.11
2019-05-28T11:58:31.473Z,24.18
2019-05-28T11:59:31.516Z,24.17
2019-05-28T12:00:31.461Z,24.08
2019-05-28T12:01:35.151Z,24.08
2019-05-28T12:02:31.438Z,24.02
2019-05-28T12:03:31.423Z,23.99
2019-05-28T12:04:31.627Z,24.05
2019-05-28T12:05:31.399Z,23.95
2019-05-28T12:06:31.387Z,24.01
2019-05-28T12:07:31.381Z,23.84
2019-05-28T12:08:31.373Z,23.91
2019-05-28T12:09:31.402Z,24.01
2019-05-28T12:10:31.348Z,23.92
2019-05-28T12:11:31.341Z,24.01
2019-05-28T12:12:31.358Z,24.02
2019-05-28T12:13:31.318Z,24.05
2019-05-28T12:14:31.338Z,23.92
2019-05-28T12:15:31.289Z,24.02
2019-05-28T12:16:31.302Z,23.91
2019-05-28T12:17:42.559Z,23.87
2019-05-28T12:18:32.260Z,23.81
2019-05-28T12:19:31.322Z,23.91
2019-05-28T12:20:31.240Z,23.83
2019-05-28T12:21:31.267Z,23.93
2019-05-28T12:22:31.221Z,23.98
2019-05-28T12:23:31.207Z,24.08
2019-05-28T12:24:31.231Z,24.16
2019-05-28T12:25:31.183Z,24.13
2019-05-28T12:26:31.170Z,24.26
2019-05-28T12:27:31.203Z,24.18
2019-05-28T12:28:37.652Z,24.10
2019-05-28T12:29:32.158Z,24.08
2019-05-28T12:30:31.126Z,24.20
2019-05-28T12:31:31.121Z,24.10
2019-05-28T12:32:31.108Z,24.10
2019-05-28T12:33:31.099Z,24.18
2019-05-28T12:34:31.121Z,24.21
2019-05-28T12:35:31.074Z,24.24
2019-05-28T12:36:31.062Z,24.21
2019-05-28T12:37:47.015Z,24.33
2019-05-28T12:38:32.041Z,24.30
2019-05-28T12:39:31.076Z,24.23
2019-05-28T12:40:46.342Z,24.10
2019-05-28T12:41:32.041Z,24.08
2019-05-28T12:42:31.000Z,23.99
2019-05-28T12:43:31.008Z,23.92
2019-05-28T12:44:41.595Z,23.86
2019-05-28T12:45:35.911Z,23.88
2019-05-28T12:46:30.971Z,23.88
2019-05-28T12:47:30.943Z,23.86
2019-05-28T12:48:30.932Z,23.86
2019-05-28T12:49:30.996Z,23.77
2019-05-28T12:50:30.910Z,23.74
2019-05-28T12:51:31.383Z,23.63
2019-05-28T12:52:30.916Z,23.59